sensor_id;sensor_type;location;lat;lon;timestamp;P1;durP1;ratioP1;P2;durP2;ratioP2
8458;SDS011;4266;48.816;9.154;2023-05-09T00:01:29;23.13;;;20.33;;
8458;SDS011;4266;48.816;9.154;2023-05-09T00:03:55;31.27;;;21.53;;
8458;SDS011;4266;48.816;9.154;2023-05-09T00:06:20;29.67;;;21.93;;
8458;SDS011;4266;48.816;9.154;2023-05-09T00:08:46;24.87;;;21.60;;
8458;SDS011;4266;48.816;9.154;2023-05-09T00:11:13;23.33;;;20.80;;
8458;SDS011;4266;48.816;9.154;2023-05-09T00:13:38;26.23;;;21.73;;
8458;SDS011;4266;48.816;9.154;2023-05-09T00:16:04;26.40;;;23.60;;
8458;SDS011;4266;48.816;9.154;2023-05-09T00:18:30;27.23;;;23.33;;
8458;SDS011;4266;48.816;9.154;2023-05-09T00:20:56;26.47;;;21.27;;
8458;SDS011;4266;48.816;9.154;2023-05-09T00:23:22;24.13;;;21.63;;
8458;SDS011;4266;48.816;9.154;2023-05-09T00:25:48;25.03;;;21.57;;
8458;SDS011;4266;48.816;9.154;2023-05-09T00:28:14;26.77;;;21.20;;
8458;SDS011;4266;48.816;9.154;2023-05-09T00:30:40;25.67;;;20.73;;
8458;SDS011;4266;48.816;9.154;2023-05-09T00:33:06;25.53;;;21.23;;
8458;SDS011;4266;48.816;9.154;2023-05-09T00:35:32;26.13;;;21.00;;
8458;SDS011;4266;48.816;9.154;2023-05-09T00:37:59;23.77;;;19.97;;
8458;SDS011;4266;48.816;9.154;2023-05-09T00:40:24;23.60;;;20.90;;
8458;SDS011;4266;48.816;9.154;2023-05-09T00:42:51;20.97;;;18.77;;
8458;SDS011;4266;48.816;9.154;2023-05-09T00:45:17;26.60;;;21.17;;
8458;SDS011;4266;48.816;9.154;2023-05-09T00:47:43;23.13;;;20.27;;
8458;SDS011;4266;48.816;9.154;2023-05-09T00:50:09;24.07;;;20.40;;
8458;SDS011;4266;48.816;9.154;2023-05-09T00:52:35;25.73;;;21.10;;
8458;SDS011;4266;48.816;9.154;2023-05-09T00:55:01;26.43;;;21.13;;
8458;SDS011;4266;48.816;9.154;2023-05-09T00:57:27;28.07;;;20.97;;
8458;SDS011;4266;48.816;9.154;2023-05-09T00:59:53;24.97;;;20.73;;
8458;SDS011;4266;48.816;9.154;2023-05-09T01:02:18;31.87;;;21.57;;
8458;SDS011;4266;48.816;9.154;2023-05-09T01:04:44;23.30;;;20.83;;
8458;SDS011;4266;48.816;9.154;2023-05-09T01:07:16;26.87;;;20.80;;
8458;SDS011;4266;48.816;9.154;2023-05-09T01:09:44;25.77;;;20.97;;
8458;SDS011;4266;48.816;9.154;2023-05-09T01:12:23;25.53;;;20.37;;
8458;SDS011;4266;48.816;9.154;2023-05-09T01:14:52;23.60;;;19.43;;
8458;SDS011;4266;48.816;9.154;2023-05-09T01:17:25;24.53;;;19.93;;
8458;SDS011;4266;48.816;9.154;2023-05-09T01:20:08;25.17;;;20.97;;
8458;SDS011;4266;48.816;9.154;2023-05-09T01:22:33;22.23;;;19.80;;
8458;SDS011;4266;48.816;9.154;2023-05-09T01:25:11;27.47;;;21.40;;
8458;SDS011;4266;48.816;9.154;2023-05-09T01:27:56;28.10;;;22.03;;
8458;SDS011;4266;48.816;9.154;2023-05-09T01:30:22;28.87;;;22.03;;
8458;SDS011;4266;48.816;9.154;2023-05-09T01:32:48;28.00;;;21.50;;
8458;SDS011;4266;48.816;9.154;2023-05-09T01:35:13;25.83;;;20.07;;
8458;SDS011;4266;48.816;9.154;2023-05-09T01:37:41;27.70;;;21.30;;
8458;SDS011;4266;48.816;9.154;2023-05-09T01:40:06;30.87;;;23.07;;
8458;SDS011;4266;48.816;9.154;2023-05-09T01:42:37;32.80;;;24.27;;
8458;SDS011;4266;48.816;9.154;2023-05-09T01:44:59;34.03;;;25.07;;
8458;SDS011;4266;48.816;9.154;2023-05-09T01:47:24;33.03;;;25.70;;
8458;SDS011;4266;48.816;9.154;2023-05-09T01:49:50;34.00;;;24.77;;
8458;SDS011;4266;48.816;9.154;2023-05-09T01:52:17;28.63;;;25.20;;
8458;SDS011;4266;48.816;9.154;2023-05-09T01:54:42;31.57;;;25.70;;
8458;SDS011;4266;48.816;9.154;2023-05-09T01:57:08;31.90;;;24.93;;
8458;SDS011;4266;48.816;9.154;2023-05-09T01:59:33;32.90;;;24.77;;
8458;SDS011;4266;48.816;9.154;2023-05-09T02:01:59;29.67;;;23.47;;
8458;SDS011;4266;48.816;9.154;2023-05-09T02:04:25;30.87;;;23.57;;
8458;SDS011;4266;48.816;9.154;2023-05-09T02:06:50;31.70;;;24.47;;
8458;SDS011;4266;48.816;9.154;2023-05-09T02:09:17;31.77;;;23.40;;
8458;SDS011;4266;48.816;9.154;2023-05-09T02:11:42;28.03;;;22.50;;
8458;SDS011;4266;48.816;9.154;2023-05-09T02:14:07;33.03;;;23.73;;
8458;SDS011;4266;48.816;9.154;2023-05-09T02:16:34;32.10;;;24.70;;
8458;SDS011;4266;48.816;9.154;2023-05-09T02:19:00;27.77;;;23.27;;
8458;SDS011;4266;48.816;9.154;2023-05-09T02:21:26;33.67;;;24.47;;
8458;SDS011;4266;48.816;9.154;2023-05-09T02:23:52;32.03;;;23.53;;
8458;SDS011;4266;48.816;9.154;2023-05-09T02:26:18;36.40;;;23.80;;
8458;SDS011;4266;48.816;9.154;2023-05-09T02:28:44;34.63;;;25.33;;
8458;SDS011;4266;48.816;9.154;2023-05-09T02:31:10;32.27;;;25.67;;
8458;SDS011;4266;48.816;9.154;2023-05-09T02:33:37;34.83;;;25.87;;
8458;SDS011;4266;48.816;9.154;2023-05-09T02:36:02;35.77;;;27.67;;
8458;SDS011;4266;48.816;9.154;2023-05-09T02:38:29;31.97;;;26.07;;
8458;SDS011;4266;48.816;9.154;2023-05-09T02:40:55;37.87;;;24.87;;
8458;SDS011;4266;48.816;9.154;2023-05-09T02:43:21;26.77;;;22.50;;
8458;SDS011;4266;48.816;9.154;2023-05-09T02:45:46;27.63;;;23.30;;
8458;SDS011;4266;48.816;9.154;2023-05-09T02:48:13;27.07;;;22.97;;
8458;SDS011;4266;48.816;9.154;2023-05-09T02:50:38;27.70;;;23.90;;
8458;SDS011;4266;48.816;9.154;2023-05-09T02:53:04;30.03;;;23.70;;
8458;SDS011;4266;48.816;9.154;2023-05-09T02:55:30;33.97;;;23.87;;
8458;SDS011;4266;48.816;9.154;2023-05-09T02:57:55;33.83;;;23.27;;
8458;SDS011;4266;48.816;9.154;2023-05-09T03:03:07;34.87;;;26.30;;
8458;SDS011;4266;48.816;9.154;2023-05-09T03:05:37;32.57;;;27.37;;
8458;SDS011;4266;48.816;9.154;2023-05-09T03:08:10;41.93;;;28.43;;
8458;SDS011;4266;48.816;9.154;2023-05-09T03:10:36;33.03;;;28.60;;
8458;SDS011;4266;48.816;9.154;2023-05-09T03:13:02;38.07;;;29.83;;
8458;SDS011;4266;48.816;9.154;2023-05-09T03:15:27;39.73;;;29.20;;
8458;SDS011;4266;48.816;9.154;2023-05-09T03:17:53;39.50;;;31.40;;
8458;SDS011;4266;48.816;9.154;2023-05-09T03:20:19;37.63;;;29.47;;
8458;SDS011;4266;48.816;9.154;2023-05-09T03:22:45;35.83;;;29.67;;
8458;SDS011;4266;48.816;9.154;2023-05-09T03:25:12;38.00;;;30.47;;
8458;SDS011;4266;48.816;9.154;2023-05-09T03:27:37;38.37;;;30.77;;
8458;SDS011;4266;48.816;9.154;2023-05-09T03:30:03;38.47;;;30.13;;
8458;SDS011;4266;48.816;9.154;2023-05-09T03:32:29;41.63;;;30.00;;
8458;SDS011;4266;48.816;9.154;2023-05-09T03:34:56;38.63;;;30.30;;
8458;SDS011;4266;48.816;9.154;2023-05-09T03:37:21;35.03;;;29.37;;
8458;SDS011;4266;48.816;9.154;2023-05-09T03:39:47;35.37;;;29.50;;
8458;SDS011;4266;48.816;9.154;2023-05-09T03:45:15;37.07;;;29.20;;
8458;SDS011;4266;48.816;9.154;2023-05-09T03:47:41;38.30;;;28.53;;
8458;SDS011;4266;48.816;9.154;2023-05-09T03:50:07;38.03;;;30.40;;
8458;SDS011;4266;48.816;9.154;2023-05-09T03:52:34;37.70;;;28.33;;
8458;SDS011;4266;48.816;9.154;2023-05-09T03:54:59;38.83;;;29.33;;
8458;SDS011;4266;48.816;9.154;2023-05-09T03:57:25;34.30;;;29.33;;
8458;SDS011;4266;48.816;9.154;2023-05-09T03:59:51;38.77;;;29.10;;
8458;SDS011;4266;48.816;9.154;2023-05-09T04:02:17;40.87;;;29.90;;
8458;SDS011;4266;48.816;9.154;2023-05-09T04:04:43;37.03;;;29.27;;
8458;SDS011;4266;48.816;9.154;2023-05-09T04:07:08;46.50;;;28.97;;
8458;SDS011;4266;48.816;9.154;2023-05-09T04:09:35;40.03;;;29.70;;
8458;SDS011;4266;48.816;9.154;2023-05-09T04:12:00;39.17;;;29.77;;
8458;SDS011;4266;48.816;9.154;2023-05-09T04:14:26;39.50;;;29.83;;
8458;SDS011;4266;48.816;9.154;2023-05-09T04:16:53;38.93;;;29.87;;
8458;SDS011;4266;48.816;9.154;2023-05-09T04:19:18;46.90;;;31.07;;
8458;SDS011;4266;48.816;9.154;2023-05-09T04:21:45;37.03;;;29.60;;
8458;SDS011;4266;48.816;9.154;2023-05-09T04:24:10;36.27;;;28.40;;
8458;SDS011;4266;48.816;9.154;2023-05-09T04:26:37;42.23;;;31.73;;
8458;SDS011;4266;48.816;9.154;2023-05-09T04:29:03;39.70;;;29.73;;
8458;SDS011;4266;48.816;9.154;2023-05-09T04:31:29;39.53;;;30.43;;
8458;SDS011;4266;48.816;9.154;2023-05-09T04:33:54;39.57;;;28.83;;
8458;SDS011;4266;48.816;9.154;2023-05-09T04:36:20;43.03;;;30.70;;
8458;SDS011;4266;48.816;9.154;2023-05-09T04:38:46;35.80;;;29.23;;
8458;SDS011;4266;48.816;9.154;2023-05-09T04:41:12;40.23;;;29.17;;
8458;SDS011;4266;48.816;9.154;2023-05-09T04:43:38;38.73;;;29.27;;
8458;SDS011;4266;48.816;9.154;2023-05-09T04:46:04;34.93;;;28.13;;
8458;SDS011;4266;48.816;9.154;2023-05-09T04:48:30;36.43;;;27.60;;
8458;SDS011;4266;48.816;9.154;2023-05-09T04:50:55;36.27;;;26.90;;
8458;SDS011;4266;48.816;9.154;2023-05-09T04:53:21;38.53;;;27.87;;
8458;SDS011;4266;48.816;9.154;2023-05-09T04:55:47;30.10;;;26.13;;
8458;SDS011;4266;48.816;9.154;2023-05-09T04:58:12;32.90;;;26.33;;
8458;SDS011;4266;48.816;9.154;2023-05-09T05:00:38;34.07;;;26.83;;
8458;SDS011;4266;48.816;9.154;2023-05-09T05:03:04;31.47;;;26.87;;
8458;SDS011;4266;48.816;9.154;2023-05-09T05:05:29;39.00;;;28.33;;
8458;SDS011;4266;48.816;9.154;2023-05-09T05:07:55;33.27;;;27.93;;
8458;SDS011;4266;48.816;9.154;2023-05-09T05:10:21;33.80;;;28.67;;
8458;SDS011;4266;48.816;9.154;2023-05-09T05:12:46;34.83;;;26.70;;
8458;SDS011;4266;48.816;9.154;2023-05-09T05:15:12;30.13;;;26.47;;
8458;SDS011;4266;48.816;9.154;2023-05-09T05:17:38;33.10;;;27.63;;
8458;SDS011;4266;48.816;9.154;2023-05-09T05:20:07;29.80;;;25.97;;
8458;SDS011;4266;48.816;9.154;2023-05-09T05:22:33;31.83;;;26.67;;
8458;SDS011;4266;48.816;9.154;2023-05-09T05:25:00;35.23;;;27.40;;
8458;SDS011;4266;48.816;9.154;2023-05-09T05:27:25;29.53;;;26.43;;
8458;SDS011;4266;48.816;9.154;2023-05-09T05:29:51;31.07;;;27.00;;
8458;SDS011;4266;48.816;9.154;2023-05-09T05:32:17;28.17;;;25.27;;
8458;SDS011;4266;48.816;9.154;2023-05-09T05:34:42;29.13;;;25.77;;
8458;SDS011;4266;48.816;9.154;2023-05-09T05:37:08;31.00;;;27.67;;
8458;SDS011;4266;48.816;9.154;2023-05-09T05:39:34;30.87;;;26.77;;
8458;SDS011;4266;48.816;9.154;2023-05-09T05:41:59;38.17;;;27.20;;
8458;SDS011;4266;48.816;9.154;2023-05-09T05:44:25;32.10;;;26.70;;
8458;SDS011;4266;48.816;9.154;2023-05-09T05:46:51;33.27;;;25.57;;
8458;SDS011;4266;48.816;9.154;2023-05-09T05:49:16;32.63;;;25.77;;
8458;SDS011;4266;48.816;9.154;2023-05-09T05:51:42;32.50;;;27.13;;
8458;SDS011;4266;48.816;9.154;2023-05-09T05:54:08;34.90;;;27.83;;
8458;SDS011;4266;48.816;9.154;2023-05-09T05:56:33;32.03;;;27.10;;
8458;SDS011;4266;48.816;9.154;2023-05-09T05:58:59;28.43;;;25.50;;
8458;SDS011;4266;48.816;9.154;2023-05-09T06:01:25;29.63;;;26.53;;
8458;SDS011;4266;48.816;9.154;2023-05-09T06:03:51;29.90;;;26.50;;
8458;SDS011;4266;48.816;9.154;2023-05-09T06:06:18;28.67;;;25.30;;
8458;SDS011;4266;48.816;9.154;2023-05-09T06:08:43;28.97;;;25.50;;
8458;SDS011;4266;48.816;9.154;2023-05-09T06:11:09;26.53;;;23.83;;
8458;SDS011;4266;48.816;9.154;2023-05-09T06:13:35;27.77;;;24.63;;
8458;SDS011;4266;48.816;9.154;2023-05-09T06:16:01;33.77;;;24.63;;
8458;SDS011;4266;48.816;9.154;2023-05-09T06:18:27;26.85;;;23.52;;
8458;SDS011;4266;48.816;9.154;2023-05-09T06:20:53;26.05;;;23.42;;
8458;SDS011;4266;48.816;9.154;2023-05-09T06:23:19;28.70;;;24.50;;
8458;SDS011;4266;48.816;9.154;2023-05-09T06:25:45;29.50;;;22.85;;
8458;SDS011;4266;48.816;9.154;2023-05-09T06:28:11;31.27;;;23.80;;
8458;SDS011;4266;48.816;9.154;2023-05-09T06:30:36;24.58;;;22.08;;
8458;SDS011;4266;48.816;9.154;2023-05-09T06:33:02;25.83;;;23.23;;
8458;SDS011;4266;48.816;9.154;2023-05-09T06:38:23;25.12;;;22.48;;
8458;SDS011;4266;48.816;9.154;2023-05-09T06:40:49;27.27;;;23.08;;
8458;SDS011;4266;48.816;9.154;2023-05-09T06:43:15;25.40;;;22.77;;
8458;SDS011;4266;48.816;9.154;2023-05-09T06:45:41;26.85;;;23.27;;
8458;SDS011;4266;48.816;9.154;2023-05-09T06:48:06;26.05;;;22.98;;
8458;SDS011;4266;48.816;9.154;2023-05-09T06:50:33;25.40;;;22.83;;
8458;SDS011;4266;48.816;9.154;2023-05-09T06:52:58;25.02;;;22.52;;
8458;SDS011;4266;48.816;9.154;2023-05-09T06:55:29;23.70;;;21.33;;
8458;SDS011;4266;48.816;9.154;2023-05-09T06:57:56;24.05;;;21.73;;
8458;SDS011;4266;48.816;9.154;2023-05-09T07:00:21;24.87;;;22.23;;
8458;SDS011;4266;48.816;9.154;2023-05-09T07:02:49;26.25;;;22.25;;
8458;SDS011;4266;48.816;9.154;2023-05-09T07:05:23;24.42;;;22.02;;
8458;SDS011;4266;48.816;9.154;2023-05-09T07:07:49;24.25;;;21.92;;
8458;SDS011;4266;48.816;9.154;2023-05-09T07:10:18;23.95;;;21.42;;
8458;SDS011;4266;48.816;9.154;2023-05-09T07:12:43;24.25;;;21.73;;
8458;SDS011;4266;48.816;9.154;2023-05-09T07:15:09;23.73;;;21.37;;
8458;SDS011;4266;48.816;9.154;2023-05-09T07:17:35;23.52;;;21.12;;
8458;SDS011;4266;48.816;9.154;2023-05-09T07:20:01;23.05;;;20.65;;
8458;SDS011;4266;48.816;9.154;2023-05-09T07:22:26;23.70;;;21.40;;
8458;SDS011;4266;48.816;9.154;2023-05-09T07:24:52;22.77;;;20.60;;
8458;SDS011;4266;48.816;9.154;2023-05-09T07:27:17;22.27;;;20.08;;
8458;SDS011;4266;48.816;9.154;2023-05-09T07:29:43;24.50;;;21.83;;
8458;SDS011;4266;48.816;9.154;2023-05-09T07:32:09;23.20;;;20.88;;
8458;SDS011;4266;48.816;9.154;2023-05-09T07:34:35;21.85;;;18.27;;
8458;SDS011;4266;48.816;9.154;2023-05-09T07:37:00;23.20;;;19.87;;
8458;SDS011;4266;48.816;9.154;2023-05-09T07:39:26;20.62;;;18.52;;
8458;SDS011;4266;48.816;9.154;2023-05-09T07:41:52;20.88;;;18.95;;
8458;SDS011;4266;48.816;9.154;2023-05-09T07:44:18;21.67;;;19.48;;
8458;SDS011;4266;48.816;9.154;2023-05-09T07:46:44;19.80;;;17.90;;
8458;SDS011;4266;48.816;9.154;2023-05-09T07:49:10;21.33;;;19.08;;
8458;SDS011;4266;48.816;9.154;2023-05-09T07:51:36;20.67;;;18.58;;
8458;SDS011;4266;48.816;9.154;2023-05-09T07:54:02;19.70;;;17.80;;
8458;SDS011;4266;48.816;9.154;2023-05-09T07:56:27;21.00;;;18.87;;
8458;SDS011;4266;48.816;9.154;2023-05-09T07:58:54;20.55;;;18.60;;
8458;SDS011;4266;48.816;9.154;2023-05-09T08:01:19;18.27;;;16.65;;
8458;SDS011;4266;48.816;9.154;2023-05-09T08:03:46;17.92;;;16.02;;
8458;SDS011;4266;48.816;9.154;2023-05-09T08:06:13;16.35;;;14.85;;
8458;SDS011;4266;48.816;9.154;2023-05-09T08:08:38;15.05;;;13.62;;
8458;SDS011;4266;48.816;9.154;2023-05-09T08:11:04;13.90;;;12.52;;
8458;SDS011;4266;48.816;9.154;2023-05-09T08:13:30;14.48;;;13.38;;
8458;SDS011;4266;48.816;9.154;2023-05-09T08:15:56;13.85;;;12.60;;
8458;SDS011;4266;48.816;9.154;2023-05-09T08:18:22;12.70;;;11.70;;
8458;SDS011;4266;48.816;9.154;2023-05-09T08:20:48;14.05;;;12.93;;
8458;SDS011;4266;48.816;9.154;2023-05-09T08:23:13;14.02;;;12.73;;
8458;SDS011;4266;48.816;9.154;2023-05-09T08:25:39;15.73;;;13.70;;
8458;SDS011;4266;48.816;9.154;2023-05-09T08:28:05;13.62;;;12.52;;
8458;SDS011;4266;48.816;9.154;2023-05-09T08:30:31;14.68;;;13.35;;
8458;SDS011;4266;48.816;9.154;2023-05-09T08:32:56;13.73;;;12.43;;
8458;SDS011;4266;48.816;9.154;2023-05-09T08:35:23;13.48;;;12.32;;
8458;SDS011;4266;48.816;9.154;2023-05-09T08:37:48;12.65;;;11.65;;
8458;SDS011;4266;48.816;9.154;2023-05-09T08:40:15;15.05;;;13.55;;
8458;SDS011;4266;48.816;9.154;2023-05-09T08:42:42;15.30;;;13.90;;
8458;SDS011;4266;48.816;9.154;2023-05-09T08:45:12;14.65;;;13.05;;
8458;SDS011;4266;48.816;9.154;2023-05-09T08:47:39;16.10;;;14.65;;
8458;SDS011;4266;48.816;9.154;2023-05-09T08:50:05;16.37;;;14.87;;
8458;SDS011;4266;48.816;9.154;2023-05-09T08:52:32;15.45;;;14.23;;
8458;SDS011;4266;48.816;9.154;2023-05-09T08:54:58;14.90;;;13.70;;
8458;SDS011;4266;48.816;9.154;2023-05-09T08:57:25;15.75;;;14.45;;
8458;SDS011;4266;48.816;9.154;2023-05-09T08:59:50;13.98;;;12.82;;
8458;SDS011;4266;48.816;9.154;2023-05-09T09:02:16;13.30;;;12.15;;
8458;SDS011;4266;48.816;9.154;2023-05-09T09:04:42;14.68;;;13.40;;
8458;SDS011;4266;48.816;9.154;2023-05-09T09:07:10;15.57;;;13.82;;
8458;SDS011;4266;48.816;9.154;2023-05-09T09:09:36;14.07;;;12.88;;
8458;SDS011;4266;48.816;9.154;2023-05-09T09:12:04;16.48;;;14.98;;
8458;SDS011;4266;48.816;9.154;2023-05-09T09:14:28;16.65;;;14.98;;
8458;SDS011;4266;48.816;9.154;2023-05-09T09:16:54;15.77;;;14.38;;
8458;SDS011;4266;48.816;9.154;2023-05-09T09:19:20;16.10;;;14.70;;
8458;SDS011;4266;48.816;9.154;2023-05-09T09:21:45;15.70;;;14.35;;
8458;SDS011;4266;48.816;9.154;2023-05-09T09:24:12;18.95;;;14.82;;
8458;SDS011;4266;48.816;9.154;2023-05-09T09:26:45;15.48;;;14.07;;
8458;SDS011;4266;48.816;9.154;2023-05-09T09:29:10;15.60;;;13.32;;
8458;SDS011;4266;48.816;9.154;2023-05-09T09:31:37;15.68;;;14.13;;
8458;SDS011;4266;48.816;9.154;2023-05-09T09:34:04;16.73;;;15.23;;
8458;SDS011;4266;48.816;9.154;2023-05-09T09:36:31;15.02;;;13.62;;
8458;SDS011;4266;48.816;9.154;2023-05-09T09:38:58;13.73;;;12.40;;
8458;SDS011;4266;48.816;9.154;2023-05-09T09:41:29;12.15;;;11.25;;
8458;SDS011;4266;48.816;9.154;2023-05-09T09:43:54;10.80;;;9.77;;
8458;SDS011;4266;48.816;9.154;2023-05-09T09:46:26;12.00;;;11.07;;
8458;SDS011;4266;48.816;9.154;2023-05-09T09:48:58;12.57;;;11.63;;
8458;SDS011;4266;48.816;9.154;2023-05-09T09:51:27;11.75;;;10.75;;
8458;SDS011;4266;48.816;9.154;2023-05-09T09:53:55;13.90;;;12.70;;
8458;SDS011;4266;48.816;9.154;2023-05-09T09:56:21;12.65;;;11.38;;
8458;SDS011;4266;48.816;9.154;2023-05-09T09:58:46;14.18;;;12.88;;
8458;SDS011;4266;48.816;9.154;2023-05-09T10:03:51;13.20;;;12.05;;
8458;SDS011;4266;48.816;9.154;2023-05-09T10:06:17;11.05;;;10.15;;
8458;SDS011;4266;48.816;9.154;2023-05-09T10:08:43;10.90;;;9.93;;
8458;SDS011;4266;48.816;9.154;2023-05-09T10:11:12;12.00;;;10.75;;
8458;SDS011;4266;48.816;9.154;2023-05-09T10:13:38;10.88;;;10.07;;
8458;SDS011;4266;48.816;9.154;2023-05-09T10:16:04;10.27;;;9.38;;
8458;SDS011;4266;48.816;9.154;2023-05-09T10:18:30;9.45;;;8.75;;
8458;SDS011;4266;48.816;9.154;2023-05-09T10:20:56;9.18;;;8.43;;
8458;SDS011;4266;48.816;9.154;2023-05-09T10:23:22;11.10;;;10.10;;
8458;SDS011;4266;48.816;9.154;2023-05-09T10:25:50;11.93;;;10.82;;
8458;SDS011;4266;48.816;9.154;2023-05-09T10:28:16;12.63;;;11.45;;
8458;SDS011;4266;48.816;9.154;2023-05-09T10:33:14;12.32;;;11.32;;
8458;SDS011;4266;48.816;9.154;2023-05-09T10:35:43;13.57;;;12.25;;
8458;SDS011;4266;48.816;9.154;2023-05-09T10:38:09;12.55;;;11.55;;
8458;SDS011;4266;48.816;9.154;2023-05-09T10:40:35;11.50;;;10.50;;
8458;SDS011;4266;48.816;9.154;2023-05-09T10:43:03;12.95;;;11.55;;
8458;SDS011;4266;48.816;9.154;2023-05-09T10:45:28;11.50;;;10.48;;
8458;SDS011;4266;48.816;9.154;2023-05-09T10:47:54;12.82;;;11.82;;
8458;SDS011;4266;48.816;9.154;2023-05-09T10:50:20;12.18;;;11.07;;
8458;SDS011;4266;48.816;9.154;2023-05-09T10:53:18;11.68;;;10.82;;
8458;SDS011;4266;48.816;9.154;2023-05-09T10:55:38;10.70;;;9.63;;
8458;SDS011;4266;48.816;9.154;2023-05-09T10:58:17;11.75;;;10.57;;
8458;SDS011;4266;48.816;9.154;2023-05-09T11:00:48;10.68;;;9.82;;
8458;SDS011;4266;48.816;9.154;2023-05-09T11:03:13;11.20;;;10.30;;
8458;SDS011;4266;48.816;9.154;2023-05-09T11:05:39;13.52;;;12.32;;
8458;SDS011;4266;48.816;9.154;2023-05-09T11:10:42;13.23;;;12.00;;
8458;SDS011;4266;48.816;9.154;2023-05-09T11:13:07;13.93;;;10.73;;
8458;SDS011;4266;48.816;9.154;2023-05-09T11:15:33;13.20;;;12.18;;
8458;SDS011;4266;48.816;9.154;2023-05-09T11:18:06;12.15;;;11.15;;
8458;SDS011;4266;48.816;9.154;2023-05-09T11:20:33;9.55;;;8.75;;
8458;SDS011;4266;48.816;9.154;2023-05-09T11:22:59;12.07;;;10.82;;
8458;SDS011;4266;48.816;9.154;2023-05-09T11:25:24;10.15;;;9.25;;
8458;SDS011;4266;48.816;9.154;2023-05-09T11:32:59;10.70;;;9.60;;
8458;SDS011;4266;48.816;9.154;2023-05-09T11:35:25;11.15;;;10.15;;
8458;SDS011;4266;48.816;9.154;2023-05-09T11:37:52;14.18;;;10.25;;
8458;SDS011;4266;48.816;9.154;2023-05-09T11:40:18;11.95;;;10.88;;
8458;SDS011;4266;48.816;9.154;2023-05-09T11:42:44;10.23;;;9.23;;
8458;SDS011;4266;48.816;9.154;2023-05-09T11:45:09;7.93;;;7.03;;
8458;SDS011;4266;48.816;9.154;2023-05-09T11:47:35;7.55;;;6.90;;
8458;SDS011;4266;48.816;9.154;2023-05-09T11:50:01;8.18;;;6.97;;
8458;SDS011;4266;48.816;9.154;2023-05-09T11:52:30;6.87;;;6.30;;
8458;SDS011;4266;48.816;9.154;2023-05-09T11:54:52;6.95;;;5.45;;
8458;SDS011;4266;48.816;9.154;2023-05-09T11:57:18;5.97;;;5.50;;
8458;SDS011;4266;48.816;9.154;2023-05-09T11:59:44;5.78;;;5.37;;
8458;SDS011;4266;48.816;9.154;2023-05-09T12:02:09;5.30;;;4.75;;
8458;SDS011;4266;48.816;9.154;2023-05-09T12:04:35;4.72;;;4.32;;
8458;SDS011;4266;48.816;9.154;2023-05-09T12:07:01;5.80;;;5.30;;
8458;SDS011;4266;48.816;9.154;2023-05-09T12:09:29;6.30;;;5.80;;
8458;SDS011;4266;48.816;9.154;2023-05-09T12:11:55;4.95;;;4.57;;
8458;SDS011;4266;48.816;9.154;2023-05-09T12:14:28;3.60;;;3.40;;
8458;SDS011;4266;48.816;9.154;2023-05-09T12:16:54;3.70;;;2.90;;
8458;SDS011;4266;48.816;9.154;2023-05-09T12:19:20;4.43;;;3.62;;
8458;SDS011;4266;48.816;9.154;2023-05-09T12:21:45;3.90;;;3.50;;
8458;SDS011;4266;48.816;9.154;2023-05-09T12:24:11;4.50;;;4.20;;
8458;SDS011;4266;48.816;9.154;2023-05-09T12:26:36;4.57;;;3.97;;
8458;SDS011;4266;48.816;9.154;2023-05-09T12:29:02;3.65;;;3.45;;
8458;SDS011;4266;48.816;9.154;2023-05-09T12:31:28;5.57;;;3.55;;
8458;SDS011;4266;48.816;9.154;2023-05-09T12:33:53;4.20;;;3.83;;
8458;SDS011;4266;48.816;9.154;2023-05-09T12:36:20;4.35;;;4.03;;
8458;SDS011;4266;48.816;9.154;2023-05-09T12:38:51;4.30;;;4.10;;
8458;SDS011;4266;48.816;9.154;2023-05-09T12:41:16;4.40;;;4.10;;
8458;SDS011;4266;48.816;9.154;2023-05-09T12:43:45;4.90;;;4.50;;
8458;SDS011;4266;48.816;9.154;2023-05-09T12:46:09;5.37;;;4.97;;
8458;SDS011;4266;48.816;9.154;2023-05-09T12:48:36;5.35;;;4.85;;
8458;SDS011;4266;48.816;9.154;2023-05-09T12:51:01;5.35;;;4.93;;
8458;SDS011;4266;48.816;9.154;2023-05-09T12:53:27;4.60;;;4.20;;
8458;SDS011;4266;48.816;9.154;2023-05-09T12:55:54;3.85;;;3.28;;
8458;SDS011;4266;48.816;9.154;2023-05-09T12:58:20;3.50;;;3.20;;
8458;SDS011;4266;48.816;9.154;2023-05-09T13:00:46;3.40;;;3.20;;
8458;SDS011;4266;48.816;9.154;2023-05-09T13:05:44;5.90;;;5.30;;
8458;SDS011;4266;48.816;9.154;2023-05-09T13:08:09;5.78;;;4.43;;
8458;SDS011;4266;48.816;9.154;2023-05-09T13:10:36;5.60;;;4.50;;
8458;SDS011;4266;48.816;9.154;2023-05-09T13:13:02;4.55;;;4.22;;
8458;SDS011;4266;48.816;9.154;2023-05-09T13:15:27;3.22;;;3.03;;
8458;SDS011;4266;48.816;9.154;2023-05-09T13:17:53;3.60;;;3.30;;
8458;SDS011;4266;48.816;9.154;2023-05-09T13:20:18;4.37;;;3.83;;
8458;SDS011;4266;48.816;9.154;2023-05-09T13:22:44;4.30;;;3.40;;
8458;SDS011;4266;48.816;9.154;2023-05-09T13:25:10;3.75;;;3.45;;
8458;SDS011;4266;48.816;9.154;2023-05-09T13:27:36;3.55;;;3.35;;
8458;SDS011;4266;48.816;9.154;2023-05-09T13:30:01;4.07;;;3.30;;
8458;SDS011;4266;48.816;9.154;2023-05-09T13:32:28;3.80;;;3.50;;
8458;SDS011;4266;48.816;9.154;2023-05-09T13:34:53;3.47;;;3.17;;
8458;SDS011;4266;48.816;9.154;2023-05-09T13:37:20;4.40;;;3.15;;
8458;SDS011;4266;48.816;9.154;2023-05-09T13:39:46;3.97;;;3.17;;
8458;SDS011;4266;48.816;9.154;2023-05-09T13:42:11;3.40;;;3.10;;
8458;SDS011;4266;48.816;9.154;2023-05-09T13:44:37;2.97;;;2.78;;
8458;SDS011;4266;48.816;9.154;2023-05-09T13:47:03;3.08;;;2.87;;
8458;SDS011;4266;48.816;9.154;2023-05-09T13:49:28;3.70;;;2.80;;
8458;SDS011;4266;48.816;9.154;2023-05-09T13:51:54;3.37;;;3.08;;
8458;SDS011;4266;48.816;9.154;2023-05-09T13:54:20;3.20;;;3.00;;
8458;SDS011;4266;48.816;9.154;2023-05-09T13:56:45;2.83;;;2.50;;
8458;SDS011;4266;48.816;9.154;2023-05-09T13:59:11;3.90;;;2.80;;
8458;SDS011;4266;48.816;9.154;2023-05-09T14:01:37;5.65;;;2.70;;
8458;SDS011;4266;48.816;9.154;2023-05-09T14:04:03;3.00;;;2.80;;
8458;SDS011;4266;48.816;9.154;2023-05-09T14:06:29;5.10;;;2.70;;
8458;SDS011;4266;48.816;9.154;2023-05-09T14:08:55;3.22;;;2.90;;
8458;SDS011;4266;48.816;9.154;2023-05-09T14:11:20;3.83;;;2.97;;
8458;SDS011;4266;48.816;9.154;2023-05-09T14:13:46;3.20;;;2.90;;
8458;SDS011;4266;48.816;9.154;2023-05-09T14:16:11;2.83;;;2.62;;
8458;SDS011;4266;48.816;9.154;2023-05-09T14:18:37;4.12;;;2.97;;
8458;SDS011;4266;48.816;9.154;2023-05-09T14:21:03;4.10;;;3.17;;
8458;SDS011;4266;48.816;9.154;2023-05-09T14:23:28;3.20;;;3.00;;
8458;SDS011;4266;48.816;9.154;2023-05-09T14:25:54;3.30;;;3.10;;
8458;SDS011;4266;48.816;9.154;2023-05-09T14:28:20;3.05;;;2.70;;
8458;SDS011;4266;48.816;9.154;2023-05-09T14:30:45;3.30;;;3.10;;
8458;SDS011;4266;48.816;9.154;2023-05-09T14:33:12;3.70;;;2.65;;
8458;SDS011;4266;48.816;9.154;2023-05-09T14:35:37;4.68;;;2.87;;
8458;SDS011;4266;48.816;9.154;2023-05-09T14:38:03;3.28;;;2.97;;
8458;SDS011;4266;48.816;9.154;2023-05-09T14:40:29;3.20;;;2.90;;
8458;SDS011;4266;48.816;9.154;2023-05-09T14:42:55;2.90;;;2.70;;
8458;SDS011;4266;48.816;9.154;2023-05-09T14:45:21;3.60;;;3.30;;
8458;SDS011;4266;48.816;9.154;2023-05-09T14:47:47;3.58;;;2.83;;
8458;SDS011;4266;48.816;9.154;2023-05-09T14:50:13;2.62;;;2.53;;
8458;SDS011;4266;48.816;9.154;2023-05-09T14:52:40;4.47;;;3.03;;
8458;SDS011;4266;48.816;9.154;2023-05-09T14:55:05;2.30;;;2.20;;
8458;SDS011;4266;48.816;9.154;2023-05-09T14:57:32;3.85;;;2.03;;
8458;SDS011;4266;48.816;9.154;2023-05-09T14:59:57;4.20;;;2.17;;
8458;SDS011;4266;48.816;9.154;2023-05-09T15:02:22;2.40;;;2.20;;
8458;SDS011;4266;48.816;9.154;2023-05-09T15:04:48;2.08;;;1.98;;
8458;SDS011;4266;48.816;9.154;2023-05-09T15:07:14;1.87;;;1.77;;
8458;SDS011;4266;48.816;9.154;2023-05-09T15:09:39;2.12;;;2.03;;
8458;SDS011;4266;48.816;9.154;2023-05-09T15:12:06;1.90;;;1.80;;
8458;SDS011;4266;48.816;9.154;2023-05-09T15:14:32;2.58;;;1.83;;